x

Central Gulf Of Alaska - 265nm West Of Cape Ommaney, Akk (46085) Wave Buoy

1:50am - Thu 25th Aug 2016 All times are UTC.

  • Sig Wave height 5.9ft
  • Peak Period 8s
  • Average Period 5s
  • Wind
    13mph, 16mph gusts
  • Sea Temp 58°f
  • Air Temp 58°f
  • Sea Pressure 1035.2mb

More Historic Weather Station data

Upgrade to MSW Pro to gain access to the past 30 days of data for over 8000 Wavebouys and Weather Stations around the globe.

Join Pro

Comparision Forecast

View Surf forecast
   
Thu 08/25 1:50am 6ft 8s 5s 13 16 mph 1035.2mb 58f 58f
12:50am 6ft 7s 5s 16 18 mph 1034.9mb 58f 58f
Wed 08/24 11:50pm 6.5ft 7s 5s 18 20 mph 1035.2mb 58f 58f
10:50pm 5.5ft 8s 5s 18 20 mph 1035.2mb 58f 58f
9:50pm 6ft 8s 5s 18 22 mph 1034.9mb 59f 58f
8:50pm 6ft 7s 5s 18 20 mph 1034.8mb 59f 58f
7:50pm 6ft 6s 5s 18 20 mph 1034.6mb 59f 58f
6:50pm 6.5ft 8s 6s 18 25 mph 1034.1mb 59f 58f
5:50pm 6ft 7s 5s 18 22 mph 1033.5mb 59f 58f
4:50pm 6ft 7s 5s 18 22 mph 1032.8mb 59f 58f
3:50pm 6ft 6s 5s 20 25 mph 1032.4mb 59f 58f
2:50pm 7ft 7s 5s 20 25 mph 1031.9mb 59f 58f
1:50pm 6.5ft 8s 5s 18 22 mph 1031.7mb 58f 58f
12:50pm 7ft 8s 5s 22 25 mph 1031.1mb 58f 58f
11:50am 7ft 8s 5s 18 22 mph 1030.5mb 58f 59f
10:50am 7ft 7s 5s 18 20 mph 1030.2mb 58f 59f
9:50am 7ft 8s 5s 20 25 mph 1029.8mb 58f 59f
8:50am 6.5ft 8s 5s 20 25 mph 1029.3mb 59f 60f
7:50am 7ft 7s 6s 18 20 mph 1029.1mb 59f 60f
6:50am 7ft 7s 6s 16 18 mph 1028.6mb 59f 60f
5:50am 6ft 7s 6s 16 18 mph 1028.1mb 59f 59f
4:50am 6ft 7s 6s 16 20 mph 1027.5mb 59f 59f
3:50am 6ft 9s 6s 18 22 mph 1027mb 59f 59f
2:50am 6.5ft 8s 6s 18 22 mph 1026.4mb 59f 59f
1:50am 6.5ft 8s 6s 20 22 mph 1025.8mb 59f 59f
12:50am 6.5ft 8s 5s 20 25 mph 1025.2mb 59f 59f
Tue 08/23 11:50pm 7ft 8s 6s 18 22 mph 1024.6mb 59f 60f
10:50pm 7ft 8s 6s 20 25 mph 1023.9mb 59f 60f
9:50pm 7ft 9s 5s 18 20 mph 1023.3mb 59f 59f
8:50pm 7ft 9s 6s 18 20 mph 1022.9mb 59f 59f
7:50pm 8.5ft 9s 6s 16 18 mph 1022.3mb 59f 59f
6:50pm 7.5ft 10s 6s 13 18 mph 1021.4mb 59f 59f
5:50pm 8ft 9s 6s 16 18 mph 1020.7mb 59f 59f
4:50pm 8ft 10s 6s 16 20 mph 1019.7mb 59f 59f
3:50pm 8.5ft 10s 7s 13 16 mph 1019.8mb 59f 58f
2:50pm 7.5ft 10s 7s 13 18 mph 1019.2mb 59f 58f
1:50pm 7.5ft 9s 6s 16 20 mph 1018.8mb 59f 59f
12:50pm 7ft 8s 6s 16 18 mph 1018.4mb 59f 59f
11:50am 7.5ft 10s 6s 16 18 mph 1018.2mb 59f 58f
10:50am 8.5ft 10s 6s 16 18 mph 1018mb 59f 58f
9:50am 9.5ft 10s 7s 18 20 mph 1017.5mb 59f 58f
8:50am 9ft 9s 6s 18 22 mph 1017mb 59f 58f
7:50am 8.5ft 9s 6s 18 20 mph 1016.4mb 59f 58f
6:50am 7.5ft 9s 6s 22 29 mph 1016mb 59f 58f
5:50am 7ft 9s 6s 16 20 mph 1015.7mb 59f 58f
4:50am 7.5ft 9s 6s 18 20 mph 1015.2mb 59f 58f
3:50am 7ft 9s 6s 18 20 mph 1014.6mb 59f 58f
2:50am 6.5ft 7s 6s 18 20 mph 1014.4mb 59f 58f
1:50am 5.5ft 7s 5s 18 20 mph 1014.1mb 59f 58f
12:50am 6ft 7s 5s 16 18 mph 1013.7mb 59f 58f
Mon 08/22 11:50pm 5ft 7s 5s 18 22 mph 1013.6mb 58f 57f
10:50pm 5.5ft 7s 5s 16 18 mph 1013.2mb 59f 58f
9:50pm 5ft 7s 5s 16 18 mph 1013mb 59f 58f
8:50pm 5.5ft 6s 5s 16 18 mph 1012.5mb 58f 58f
7:50pm 6ft 6s 5s 16 20 mph 1011.9mb 58f 59f
6:50pm 6ft 6s 5s 18 22 mph 1011.5mb 58f 59f
5:50pm 6ft 6s 5s 18 20 mph 1011.1mb 58f 58f
4:50pm 6ft 6s 5s 18 20 mph 1010.7mb 58f 58f
3:50pm 6.5ft 6s 5s 18 22 mph 1010.4mb 58f 58f
2:50pm 6ft 6s 5s 18 22 mph 1010.5mb 58f 58f
1:50pm 7ft 6s 5s 20 27 mph 1010.3mb 58f 59f
12:50pm 6ft 5s 5s 22 25 mph 1010.7mb 59f 58f
11:50am 5.5ft 6s 5s 22 27 mph 1011.3mb 59f 58f
10:50am 5.5ft 5s 5s 25 27 mph 1011.9mb 59f 57f
9:50am 5ft 5s 4s 22 27 mph 1012.7mb 59f 57f
8:50am 4.5ft 5s 4s 20 25 mph 1013.5mb 59f 56f
7:50am 4.5ft 4s 4s 20 25 mph 1013.9mb 59f 57f
6:50am 3.5ft 5s 4s 20 22 mph 1014.6mb 59f 57f
5:50am 3.5ft 5s 4s 18 20 mph 1015.2mb 59f 57f
4:50am 3.5ft 5s 4s 16 18 mph 1015.6mb 59f 57f
3:50am 3.5ft 5s 4s 13 16 mph 1015.8mb 59f 57f
2:50am 3.5ft 6s 4s 13 16 mph 1016mb 59f 58f
1:50am 4ft 5s 5s 13 16 mph 1016.3mb 59f 58f
12:50am 3.5ft 7s 5s 13 16 mph 1016.6mb 59f 58f
Sun 08/21 11:50pm 3.5ft 5s 5s 13 18 mph 1016.9mb 59f 58f
10:50pm 3.5ft 7s 5s 11 13 mph 1017.5mb 59f 58f
9:50pm 3.5ft 7s 5s 13 16 mph 1017.7mb 59f 58f
8:50pm 3.5ft 8s 5s 16 18 mph 1017.9mb 59f 58f
7:50pm 3.5ft 7s 5s 13 16 mph 1018.1mb 59f 58f
6:50pm 3.5ft 7s 5s 16 18 mph 1018.5mb 58f 58f
5:50pm 3.5ft 7s 5s 13 16 mph 1018.5mb 58f 58f
4:50pm 3.5ft 7s 5s 9 11 mph 1018.7mb 58f 58f
3:50pm 3.5ft 8s 5s 2 4 mph 1018.8mb 59f 56f
2:50pm 4ft 8s 5s 11 16 mph 1018.7mb 59f 58f
1:50pm 4ft 8s 5s 11 13 mph 1018.6mb 59f 58f
12:50pm 4ft 7s 5s 13 16 mph 1018.9mb 59f 58f
11:50am 4ft 8s 5s 9 11 mph 1019.2mb 59f 57f
10:50am 4ft 8s 6s 11 13 mph 1019.6mb 59f 58f
9:50am 4.5ft 7s 5s 11 13 mph 1019.7mb 59f 58f
8:50am 4.5ft 8s 5s 13 16 mph 1020.2mb 59f 58f
7:50am 4ft 7s 5s 13
mph
1020.3mb 59f 58f
6:50am 4ft 8s 5s 11 13 mph 1020.4mb 59f 58f
5:50am 4.5ft 8s 5s 13 16 mph 1020.3mb 59f 58f
4:50am 4ft 9s 5s 16 18 mph 1020.2mb 59f 58f
3:50am 4ft 9s 5s 13 18 mph 1020.3mb 59f 58f
2:50am 4ft 8s 5s 13 16 mph 1020.4mb 59f 58f